KMDW/MDW METAR and TAF weather

Enter ICAO airport designator
Station Type Date Time Source
KMDW METAR 2019/06/18 16:53 UTC NOAA

KMDW 181653Z 12005KT 10SM SCT017 BKN250 21/16 A2996 RMK AO2 SLP142 T02060156


Station Type Date Time Source
KMDW Decoded METAR 2019/06/18 16:53 UTC NOAA

CHICAGO MIDWAY AIRPORT, IL, United States (KMDW) 41-47N 087-45W 188M
Jun 18, 2019 - 12:53 PM EDT / 2019.06.18 1653 UTC
Wind: from the ESE (120 degrees) at 6 MPH (5 KT):0
Visibility: 10 mile(s):0
Sky conditions: mostly cloudy
Temperature: 69.1 F (20.6 C)
Dew Point: 60.1 F (15.6 C)
Relative Humidity: 73%
Pressure (altimeter): 29.96 in. Hg (1014 hPa)
ob: KMDW 181653Z 12005KT 10SM SCT017 BKN250 21/16 A2996 RMK AO2 SLP142 T02060156
cycle: 17

Station Type Date Time Source
KMDW TAF 2019/06/18 15:42 UTC NOAA

TAF
AMD KMDW 181440Z 1815/1918 03003KT P6SM OVC007
FM181600 04004KT P6SM SCT007 SCT150
FM181800 09008KT P6SM SCT040 SCT120
FM190100 12003KT P6SM FEW035 SCT100
FM190800 20003KT 4SM BR SCT050 BKN100
TEMPO 1909/1913 1 1/2SM BR
FM191300 01010KT P6SM OVC060 PROB30 1915/1918 4SM -SHRA BR OVC050

Example: see airport list